sensor_id;sensor_type;location;lat;lon;timestamp;P1;durP1;ratioP1;P2;durP2;ratioP2
4174;SDS011;2101;48.290;14.382;2023-02-01T00:01:31;13.77;;;2.67;;
4174;SDS011;2101;48.290;14.382;2023-02-01T00:03:57;15.50;;;3.07;;
4174;SDS011;2101;48.290;14.382;2023-02-01T00:06:24;15.10;;;2.60;;
4174;SDS011;2101;48.290;14.382;2023-02-01T00:08:53;12.97;;;2.80;;
4174;SDS011;2101;48.290;14.382;2023-02-01T00:11:20;12.87;;;2.30;;
4174;SDS011;2101;48.290;14.382;2023-02-01T00:13:46;12.40;;;2.60;;
4174;SDS011;2101;48.290;14.382;2023-02-01T00:18:39;13.37;;;2.87;;
4174;SDS011;2101;48.290;14.382;2023-02-01T00:21:05;14.27;;;2.70;;
4174;SDS011;2101;48.290;14.382;2023-02-01T00:23:32;12.90;;;2.83;;
4174;SDS011;2101;48.290;14.382;2023-02-01T00:26:03;11.33;;;2.20;;
4174;SDS011;2101;48.290;14.382;2023-02-01T00:28:29;11.43;;;2.23;;
4174;SDS011;2101;48.290;14.382;2023-02-01T00:30:59;15.23;;;3.57;;
4174;SDS011;2101;48.290;14.382;2023-02-01T00:33:25;13.90;;;2.73;;
4174;SDS011;2101;48.290;14.382;2023-02-01T00:35:55;19.10;;;3.70;;
4174;SDS011;2101;48.290;14.382;2023-02-01T00:38:22;14.23;;;3.27;;
4174;SDS011;2101;48.290;14.382;2023-02-01T00:40:48;14.87;;;3.43;;
4174;SDS011;2101;48.290;14.382;2023-02-01T00:43:14;15.33;;;3.20;;
4174;SDS011;2101;48.290;14.382;2023-02-01T00:45:40;15.00;;;3.27;;
4174;SDS011;2101;48.290;14.382;2023-02-01T00:48:06;14.53;;;3.80;;
4174;SDS011;2101;48.290;14.382;2023-02-01T00:50:32;16.00;;;3.60;;
4174;SDS011;2101;48.290;14.382;2023-02-01T00:52:58;15.53;;;3.37;;
4174;SDS011;2101;48.290;14.382;2023-02-01T00:55:24;14.50;;;2.70;;
4174;SDS011;2101;48.290;14.382;2023-02-01T00:57:50;14.60;;;2.57;;
4174;SDS011;2101;48.290;14.382;2023-02-01T01:00:17;15.67;;;3.20;;
4174;SDS011;2101;48.290;14.382;2023-02-01T01:02:43;14.57;;;3.40;;
4174;SDS011;2101;48.290;14.382;2023-02-01T01:05:09;16.20;;;4.20;;
4174;SDS011;2101;48.290;14.382;2023-02-01T01:07:35;18.00;;;3.97;;
4174;SDS011;2101;48.290;14.382;2023-02-01T01:10:01;18.63;;;4.37;;
4174;SDS011;2101;48.290;14.382;2023-02-01T01:12:27;14.43;;;2.73;;
4174;SDS011;2101;48.290;14.382;2023-02-01T01:14:54;17.60;;;4.50;;
4174;SDS011;2101;48.290;14.382;2023-02-01T01:17:20;14.50;;;3.77;;
4174;SDS011;2101;48.290;14.382;2023-02-01T01:19:46;19.07;;;4.27;;
4174;SDS011;2101;48.290;14.382;2023-02-01T01:22:12;14.10;;;2.60;;
4174;SDS011;2101;48.290;14.382;2023-02-01T01:24:38;19.00;;;4.60;;
4174;SDS011;2101;48.290;14.382;2023-02-01T01:27:04;16.37;;;3.00;;
4174;SDS011;2101;48.290;14.382;2023-02-01T01:29:30;14.60;;;3.30;;
4174;SDS011;2101;48.290;14.382;2023-02-01T01:31:56;13.40;;;2.97;;
4174;SDS011;2101;48.290;14.382;2023-02-01T01:34:22;17.47;;;3.17;;
4174;SDS011;2101;48.290;14.382;2023-02-01T01:39:24;14.50;;;3.10;;
4174;SDS011;2101;48.290;14.382;2023-02-01T01:41:50;28.67;;;3.10;;
4174;SDS011;2101;48.290;14.382;2023-02-01T01:47:01;13.37;;;3.20;;
4174;SDS011;2101;48.290;14.382;2023-02-01T01:49:27;12.70;;;2.50;;
4174;SDS011;2101;48.290;14.382;2023-02-01T01:51:55;14.33;;;3.30;;
4174;SDS011;2101;48.290;14.382;2023-02-01T01:54:25;12.83;;;2.43;;
4174;SDS011;2101;48.290;14.382;2023-02-01T01:56:58;17.70;;;2.93;;
4174;SDS011;2101;48.290;14.382;2023-02-01T01:59:26;16.33;;;3.47;;
4174;SDS011;2101;48.290;14.382;2023-02-01T02:01:52;13.43;;;3.10;;
4174;SDS011;2101;48.290;14.382;2023-02-01T02:04:19;13.70;;;2.87;;
4174;SDS011;2101;48.290;14.382;2023-02-01T02:06:47;15.33;;;2.83;;
4174;SDS011;2101;48.290;14.382;2023-02-01T02:09:15;15.10;;;3.50;;
4174;SDS011;2101;48.290;14.382;2023-02-01T02:11:42;16.30;;;3.80;;
4174;SDS011;2101;48.290;14.382;2023-02-01T02:14:09;13.20;;;2.60;;
4174;SDS011;2101;48.290;14.382;2023-02-01T02:32:23;19.77;;;3.30;;
4174;SDS011;2101;48.290;14.382;2023-02-01T02:35:01;13.50;;;2.70;;
4174;SDS011;2101;48.290;14.382;2023-02-01T02:42:39;19.10;;;2.33;;
4174;SDS011;2101;48.290;14.382;2023-02-01T02:45:29;11.40;;;1.50;;
4174;SDS011;2101;48.290;14.382;2023-02-01T02:48:25;20.33;;;2.10;;
4174;SDS011;2101;48.290;14.382;2023-02-01T02:53:43;13.50;;;2.83;;
4174;SDS011;2101;48.290;14.382;2023-02-01T02:56:31;18.90;;;4.13;;
4174;SDS011;2101;48.290;14.382;2023-02-01T02:59:17;16.57;;;3.60;;
4174;SDS011;2101;48.290;14.382;2023-02-01T03:02:03;15.10;;;3.50;;
4174;SDS011;2101;48.290;14.382;2023-02-01T03:04:52;16.70;;;3.87;;
4174;SDS011;2101;48.290;14.382;2023-02-01T03:10:07;16.40;;;2.73;;
4174;SDS011;2101;48.290;14.382;2023-02-01T03:12:37;12.60;;;2.67;;
4174;SDS011;2101;48.290;14.382;2023-02-01T03:15:21;14.13;;;2.30;;
4174;SDS011;2101;48.290;14.382;2023-02-01T03:17:49;13.17;;;2.63;;
4174;SDS011;2101;48.290;14.382;2023-02-01T03:20:16;13.53;;;2.50;;
4174;SDS011;2101;48.290;14.382;2023-02-01T03:22:47;13.60;;;2.03;;
4174;SDS011;2101;48.290;14.382;2023-02-01T03:25:16;11.00;;;1.93;;
4174;SDS011;2101;48.290;14.382;2023-02-01T03:27:49;14.23;;;2.23;;
4174;SDS011;2101;48.290;14.382;2023-02-01T03:30:24;13.90;;;2.30;;
4174;SDS011;2101;48.290;14.382;2023-02-01T03:32:51;11.77;;;1.70;;
4174;SDS011;2101;48.290;14.382;2023-02-01T03:35:25;14.07;;;2.37;;
4174;SDS011;2101;48.290;14.382;2023-02-01T03:37:53;14.40;;;2.00;;
4174;SDS011;2101;48.290;14.382;2023-02-01T03:40:22;11.23;;;1.80;;
4174;SDS011;2101;48.290;14.382;2023-02-01T03:42:49;12.83;;;2.10;;
4174;SDS011;2101;48.290;14.382;2023-02-01T03:45:24;13.60;;;2.43;;
4174;SDS011;2101;48.290;14.382;2023-02-01T03:47:53;12.03;;;1.60;;
4174;SDS011;2101;48.290;14.382;2023-02-01T03:50:21;14.10;;;1.90;;
4174;SDS011;2101;48.290;14.382;2023-02-01T03:52:51;13.00;;;1.30;;
4174;SDS011;2101;48.290;14.382;2023-02-01T03:55:19;20.77;;;4.07;;
4174;SDS011;2101;48.290;14.382;2023-02-01T03:57:48;17.57;;;3.60;;
4174;SDS011;2101;48.290;14.382;2023-02-01T04:00:21;21.07;;;2.50;;
4174;SDS011;2101;48.290;14.382;2023-02-01T04:02:47;13.07;;;2.07;;
4174;SDS011;2101;48.290;14.382;2023-02-01T04:05:14;15.53;;;2.10;;
4174;SDS011;2101;48.290;14.382;2023-02-01T04:07:40;12.80;;;2.00;;
4174;SDS011;2101;48.290;14.382;2023-02-01T04:10:06;13.50;;;2.17;;
4174;SDS011;2101;48.290;14.382;2023-02-01T04:12:33;13.10;;;1.90;;
4174;SDS011;2101;48.290;14.382;2023-02-01T04:14:59;11.60;;;1.50;;
4174;SDS011;2101;48.290;14.382;2023-02-01T04:17:25;10.90;;;1.33;;
4174;SDS011;2101;48.290;14.382;2023-02-01T04:19:51;12.17;;;1.80;;
4174;SDS011;2101;48.290;14.382;2023-02-01T04:22:17;16.57;;;2.10;;
4174;SDS011;2101;48.290;14.382;2023-02-01T04:24:43;11.93;;;2.03;;
4174;SDS011;2101;48.290;14.382;2023-02-01T04:27:09;12.50;;;1.83;;
4174;SDS011;2101;48.290;14.382;2023-02-01T04:29:35;13.10;;;1.80;;
4174;SDS011;2101;48.290;14.382;2023-02-01T04:32:01;10.07;;;1.30;;
4174;SDS011;2101;48.290;14.382;2023-02-01T04:34:27;16.77;;;1.83;;
4174;SDS011;2101;48.290;14.382;2023-02-01T04:36:53;11.50;;;1.77;;
4174;SDS011;2101;48.290;14.382;2023-02-01T04:39:20;11.10;;;1.70;;
4174;SDS011;2101;48.290;14.382;2023-02-01T04:41:46;11.97;;;1.60;;
4174;SDS011;2101;48.290;14.382;2023-02-01T04:44:15;11.27;;;1.67;;
4174;SDS011;2101;48.290;14.382;2023-02-01T04:46:41;12.97;;;1.70;;
4174;SDS011;2101;48.290;14.382;2023-02-01T04:49:08;12.53;;;1.80;;
4174;SDS011;2101;48.290;14.382;2023-02-01T04:51:35;15.90;;;1.83;;
4174;SDS011;2101;48.290;14.382;2023-02-01T04:54:01;11.57;;;1.70;;
4174;SDS011;2101;48.290;14.382;2023-02-01T04:56:28;13.37;;;1.87;;
4174;SDS011;2101;48.290;14.382;2023-02-01T04:58:54;11.80;;;1.90;;
4174;SDS011;2101;48.290;14.382;2023-02-01T05:01:21;12.33;;;2.00;;
4174;SDS011;2101;48.290;14.382;2023-02-01T05:03:47;11.03;;;1.43;;
4174;SDS011;2101;48.290;14.382;2023-02-01T05:06:13;11.60;;;2.10;;
4174;SDS011;2101;48.290;14.382;2023-02-01T05:08:41;13.00;;;2.10;;
4174;SDS011;2101;48.290;14.382;2023-02-01T05:11:07;14.13;;;2.37;;
4174;SDS011;2101;48.290;14.382;2023-02-01T05:13:55;10.73;;;1.77;;
4174;SDS011;2101;48.290;14.382;2023-02-01T05:16:21;14.30;;;1.70;;
4174;SDS011;2101;48.290;14.382;2023-02-01T05:18:47;11.60;;;2.20;;
4174;SDS011;2101;48.290;14.382;2023-02-01T05:21:13;18.00;;;2.60;;
4174;SDS011;2101;48.290;14.382;2023-02-01T05:23:39;12.30;;;2.30;;
4174;SDS011;2101;48.290;14.382;2023-02-01T05:26:24;16.30;;;3.40;;
4174;SDS011;2101;48.290;14.382;2023-02-01T05:28:50;17.57;;;3.37;;
4174;SDS011;2101;48.290;14.382;2023-02-01T05:31:16;15.07;;;3.30;;
4174;SDS011;2101;48.290;14.382;2023-02-01T05:33:43;18.23;;;4.87;;
4174;SDS011;2101;48.290;14.382;2023-02-01T05:36:09;15.60;;;2.33;;
4174;SDS011;2101;48.290;14.382;2023-02-01T05:38:35;17.50;;;2.97;;
4174;SDS011;2101;48.290;14.382;2023-02-01T05:41:02;14.50;;;2.80;;
4174;SDS011;2101;48.290;14.382;2023-02-01T05:43:28;16.23;;;3.50;;
4174;SDS011;2101;48.290;14.382;2023-02-01T05:45:54;14.57;;;2.73;;
4174;SDS011;2101;48.290;14.382;2023-02-01T05:48:20;18.90;;;2.80;;
4174;SDS011;2101;48.290;14.382;2023-02-01T05:50:46;14.67;;;2.77;;
4174;SDS011;2101;48.290;14.382;2023-02-01T05:53:12;14.23;;;2.50;;
4174;SDS011;2101;48.290;14.382;2023-02-01T05:55:39;12.40;;;1.87;;
4174;SDS011;2101;48.290;14.382;2023-02-01T05:58:05;16.20;;;2.20;;
4174;SDS011;2101;48.290;14.382;2023-02-01T06:00:33;11.93;;;1.93;;
4174;SDS011;2101;48.290;14.382;2023-02-01T06:02:59;11.80;;;1.70;;
4174;SDS011;2101;48.290;14.382;2023-02-01T06:05:26;13.10;;;2.57;;
4174;SDS011;2101;48.290;14.382;2023-02-01T06:07:53;14.80;;;1.60;;
4174;SDS011;2101;48.290;14.382;2023-02-01T06:10:20;12.67;;;2.07;;
4174;SDS011;2101;48.290;14.382;2023-02-01T06:12:47;14.07;;;2.40;;
4174;SDS011;2101;48.290;14.382;2023-02-01T06:15:13;12.23;;;2.50;;
4174;SDS011;2101;48.290;14.382;2023-02-01T06:17:40;15.67;;;3.20;;
4174;SDS011;2101;48.290;14.382;2023-02-01T06:20:08;14.00;;;2.93;;
4174;SDS011;2101;48.290;14.382;2023-02-01T06:22:35;15.63;;;2.67;;
4174;SDS011;2101;48.290;14.382;2023-02-01T06:25:05;13.13;;;2.60;;
4174;SDS011;2101;48.290;14.382;2023-02-01T06:27:31;15.80;;;2.47;;
4174;SDS011;2101;48.290;14.382;2023-02-01T06:29:59;14.30;;;2.43;;
4174;SDS011;2101;48.290;14.382;2023-02-01T06:32:25;13.80;;;2.37;;
4174;SDS011;2101;48.290;14.382;2023-02-01T06:34:53;13.00;;;1.90;;
4174;SDS011;2101;48.290;14.382;2023-02-01T06:37:21;13.20;;;1.87;;
4174;SDS011;2101;48.290;14.382;2023-02-01T06:39:50;12.47;;;1.90;;
4174;SDS011;2101;48.290;14.382;2023-02-01T06:42:16;11.93;;;1.90;;
4174;SDS011;2101;48.290;14.382;2023-02-01T06:44:42;13.50;;;2.27;;
4174;SDS011;2101;48.290;14.382;2023-02-01T06:47:09;15.37;;;2.17;;
4174;SDS011;2101;48.290;14.382;2023-02-01T06:49:38;13.53;;;2.47;;
4174;SDS011;2101;48.290;14.382;2023-02-01T06:52:06;13.80;;;3.10;;
4174;SDS011;2101;48.290;14.382;2023-02-01T06:54:34;21.87;;;3.50;;
4174;SDS011;2101;48.290;14.382;2023-02-01T06:57:03;18.80;;;3.60;;
4174;SDS011;2101;48.290;14.382;2023-02-01T06:59:37;17.10;;;3.23;;
4174;SDS011;2101;48.290;14.382;2023-02-01T07:02:03;15.57;;;2.90;;
4174;SDS011;2101;48.290;14.382;2023-02-01T07:04:32;14.97;;;3.03;;
4174;SDS011;2101;48.290;14.382;2023-02-01T07:07:02;13.77;;;2.40;;
4174;SDS011;2101;48.290;14.382;2023-02-01T07:09:28;20.90;;;5.23;;
4174;SDS011;2101;48.290;14.382;2023-02-01T07:11:56;16.27;;;3.40;;
4174;SDS011;2101;48.290;14.382;2023-02-01T07:14:23;16.33;;;3.10;;
4174;SDS011;2101;48.290;14.382;2023-02-01T07:16:50;18.20;;;3.80;;
4174;SDS011;2101;48.290;14.382;2023-02-01T07:19:17;13.93;;;2.90;;
4174;SDS011;2101;48.290;14.382;2023-02-01T07:21:43;21.53;;;3.57;;
4174;SDS011;2101;48.290;14.382;2023-02-01T07:24:09;15.33;;;3.00;;
4174;SDS011;2101;48.290;14.382;2023-02-01T07:26:35;13.33;;;2.23;;
4174;SDS011;2101;48.290;14.382;2023-02-01T07:29:03;17.07;;;3.80;;
4174;SDS011;2101;48.290;14.382;2023-02-01T07:31:31;18.23;;;3.40;;
4174;SDS011;2101;48.290;14.382;2023-02-01T07:33:57;15.97;;;3.57;;
4174;SDS011;2101;48.290;14.382;2023-02-01T07:36:25;12.50;;;2.47;;
4174;SDS011;2101;48.290;14.382;2023-02-01T07:38:54;11.90;;;1.70;;
4174;SDS011;2101;48.290;14.382;2023-02-01T07:41:21;13.03;;;1.87;;
4174;SDS011;2101;48.290;14.382;2023-02-01T07:43:53;15.03;;;2.60;;
4174;SDS011;2101;48.290;14.382;2023-02-01T07:46:20;12.97;;;2.47;;
4174;SDS011;2101;48.290;14.382;2023-02-01T07:48:46;16.53;;;2.40;;
4174;SDS011;2101;48.290;14.382;2023-02-01T07:51:15;11.73;;;1.93;;
4174;SDS011;2101;48.290;14.382;2023-02-01T07:53:43;13.37;;;2.43;;
4174;SDS011;2101;48.290;14.382;2023-02-01T07:56:17;11.30;;;1.97;;
4174;SDS011;2101;48.290;14.382;2023-02-01T07:58:47;13.80;;;2.33;;
4174;SDS011;2101;48.290;14.382;2023-02-01T08:01:17;12.00;;;2.07;;
4174;SDS011;2101;48.290;14.382;2023-02-01T18:57:26;13.67;;;1.57;;
4174;SDS011;2101;48.290;14.382;2023-02-01T19:00:16;15.20;;;1.60;;
4174;SDS011;2101;48.290;14.382;2023-02-01T19:02:52;13.27;;;1.70;;
4174;SDS011;2101;48.290;14.382;2023-02-01T19:31:24;11.07;;;1.53;;
4174;SDS011;2101;48.290;14.382;2023-02-01T19:34:26;11.30;;;1.80;;
4174;SDS011;2101;48.290;14.382;2023-02-01T19:45:21;10.23;;;1.23;;
4174;SDS011;2101;48.290;14.382;2023-02-01T19:47:47;9.83;;;1.13;;
4174;SDS011;2101;48.290;14.382;2023-02-01T19:50:17;14.60;;;1.67;;
4174;SDS011;2101;48.290;14.382;2023-02-01T19:52:46;12.93;;;1.40;;
4174;SDS011;2101;48.290;14.382;2023-02-01T19:55:14;14.67;;;1.50;;
4174;SDS011;2101;48.290;14.382;2023-02-01T19:57:40;10.97;;;1.33;;
4174;SDS011;2101;48.290;14.382;2023-02-01T20:00:08;12.73;;;2.00;;
4174;SDS011;2101;48.290;14.382;2023-02-01T20:02:35;11.93;;;1.20;;
4174;SDS011;2101;48.290;14.382;2023-02-01T20:05:03;14.73;;;1.50;;
4174;SDS011;2101;48.290;14.382;2023-02-01T20:07:29;12.97;;;1.60;;
4174;SDS011;2101;48.290;14.382;2023-02-01T20:10:02;17.20;;;3.00;;
4174;SDS011;2101;48.290;14.382;2023-02-01T20:12:33;21.77;;;1.90;;
4174;SDS011;2101;48.290;14.382;2023-02-01T20:15:03;13.33;;;1.30;;
4174;SDS011;2101;48.290;14.382;2023-02-01T20:17:39;12.17;;;1.20;;
4174;SDS011;2101;48.290;14.382;2023-02-01T20:25:32;13.70;;;1.67;;
4174;SDS011;2101;48.290;14.382;2023-02-01T20:31:15;23.43;;;2.27;;
4174;SDS011;2101;48.290;14.382;2023-02-01T20:34:20;14.90;;;2.03;;
4174;SDS011;2101;48.290;14.382;2023-02-01T20:36:49;13.93;;;2.00;;
4174;SDS011;2101;48.290;14.382;2023-02-01T20:39:25;12.47;;;1.47;;
4174;SDS011;2101;48.290;14.382;2023-02-01T20:47:03;13.83;;;2.20;;
4174;SDS011;2101;48.290;14.382;2023-02-01T20:49:39;12.77;;;1.40;;
4174;SDS011;2101;48.290;14.382;2023-02-01T20:52:08;15.00;;;1.77;;
4174;SDS011;2101;48.290;14.382;2023-02-01T20:54:34;13.70;;;2.00;;
4174;SDS011;2101;48.290;14.382;2023-02-01T20:57:05;13.70;;;1.70;;
4174;SDS011;2101;48.290;14.382;2023-02-01T21:40:41;12.97;;;1.30;;
4174;SDS011;2101;48.290;14.382;2023-02-01T21:43:11;14.10;;;1.33;;
4174;SDS011;2101;48.290;14.382;2023-02-01T21:45:38;15.80;;;1.70;;
4174;SDS011;2101;48.290;14.382;2023-02-01T21:48:05;14.30;;;1.70;;
4174;SDS011;2101;48.290;14.382;2023-02-01T21:50:31;18.17;;;1.43;;
4174;SDS011;2101;48.290;14.382;2023-02-01T21:53:00;9.70;;;0.93;;
4174;SDS011;2101;48.290;14.382;2023-02-01T21:55:28;12.80;;;1.10;;
4174;SDS011;2101;48.290;14.382;2023-02-01T21:57:56;10.97;;;1.20;;
4174;SDS011;2101;48.290;14.382;2023-02-01T22:00:24;16.30;;;1.33;;
4174;SDS011;2101;48.290;14.382;2023-02-01T22:02:55;24.83;;;1.57;;
4174;SDS011;2101;48.290;14.382;2023-02-01T22:05:37;10.87;;;1.10;;
4174;SDS011;2101;48.290;14.382;2023-02-01T22:08:07;15.70;;;1.43;;
4174;SDS011;2101;48.290;14.382;2023-02-01T22:10:39;11.17;;;1.30;;
4174;SDS011;2101;48.290;14.382;2023-02-01T22:13:11;12.97;;;2.17;;
4174;SDS011;2101;48.290;14.382;2023-02-01T22:15:49;13.40;;;1.67;;
4174;SDS011;2101;48.290;14.382;2023-02-01T22:18:17;16.23;;;1.20;;
4174;SDS011;2101;48.290;14.382;2023-02-01T22:20:47;16.23;;;1.53;;
4174;SDS011;2101;48.290;14.382;2023-02-01T22:23:14;12.63;;;1.20;;
4174;SDS011;2101;48.290;14.382;2023-02-01T22:25:41;10.97;;;1.60;;
4174;SDS011;2101;48.290;14.382;2023-02-01T22:28:08;11.20;;;1.80;;
4174;SDS011;2101;48.290;14.382;2023-02-01T22:30:42;15.97;;;2.47;;
4174;SDS011;2101;48.290;14.382;2023-02-01T22:33:09;18.93;;;2.10;;
4174;SDS011;2101;48.290;14.382;2023-02-01T22:35:37;10.93;;;1.30;;
4174;SDS011;2101;48.290;14.382;2023-02-01T22:38:13;10.87;;;1.20;;
4174;SDS011;2101;48.290;14.382;2023-02-01T22:40:42;17.53;;;1.50;;
4174;SDS011;2101;48.290;14.382;2023-02-01T22:43:12;15.77;;;1.43;;
4174;SDS011;2101;48.290;14.382;2023-02-01T22:45:39;14.83;;;1.30;;
4174;SDS011;2101;48.290;14.382;2023-02-01T22:48:06;12.00;;;1.60;;
4174;SDS011;2101;48.290;14.382;2023-02-01T22:50:35;18.10;;;2.30;;
4174;SDS011;2101;48.290;14.382;2023-02-01T22:53:01;14.57;;;1.83;;
4174;SDS011;2101;48.290;14.382;2023-02-01T22:55:31;10.60;;;1.30;;
4174;SDS011;2101;48.290;14.382;2023-02-01T22:58:03;11.30;;;1.20;;
4174;SDS011;2101;48.290;14.382;2023-02-01T23:00:33;17.20;;;1.40;;
4174;SDS011;2101;48.290;14.382;2023-02-01T23:03:01;14.07;;;1.20;;
4174;SDS011;2101;48.290;14.382;2023-02-01T23:05:27;14.30;;;2.40;;
4174;SDS011;2101;48.290;14.382;2023-02-01T23:07:55;14.43;;;1.87;;
4174;SDS011;2101;48.290;14.382;2023-02-01T23:10:28;12.70;;;1.37;;
4174;SDS011;2101;48.290;14.382;2023-02-01T23:13:03;12.63;;;1.60;;
4174;SDS011;2101;48.290;14.382;2023-02-01T23:15:37;12.60;;;1.43;;
4174;SDS011;2101;48.290;14.382;2023-02-01T23:18:05;10.13;;;1.10;;
4174;SDS011;2101;48.290;14.382;2023-02-01T23:20:31;12.37;;;1.40;;
4174;SDS011;2101;48.290;14.382;2023-02-01T23:23:00;17.70;;;1.27;;
4174;SDS011;2101;48.290;14.382;2023-02-01T23:25:29;12.80;;;1.37;;
4174;SDS011;2101;48.290;14.382;2023-02-01T23:27:55;14.33;;;1.77;;
4174;SDS011;2101;48.290;14.382;2023-02-01T23:30:25;20.63;;;1.53;;
4174;SDS011;2101;48.290;14.382;2023-02-01T23:32:52;10.53;;;1.40;;
4174;SDS011;2101;48.290;14.382;2023-02-01T23:35:21;15.10;;;1.47;;
4174;SDS011;2101;48.290;14.382;2023-02-01T23:37:47;15.40;;;1.60;;
